Time;durP1;ratioP1;P1;durP2;ratioP2;P2;SDS_P1;SDS_P2;PMS_P1;PMS_P2;Temp;Humidity;BMP_temperature;BMP_pressure;BME280_temperature;BME280_humidity;BME280_pressure;Samples;Min_cycle;Max_cycle;Signal;HPM_P1;HPM_P2
2023/05/13 00:00:11;;;;;;;3.53;2.20;;;;;;;;;;5028729;28;20024;-79
2023/05/13 00:02:37;;;;;;;2.22;1.55;;;;;;;;;;5011243;28;20477;-79
2023/05/13 00:05:03;;;;;;;2.60;2.00;;;;;;;;;;5008498;28;20064;-79
2023/05/13 00:07:29;;;;;;;2.65;2.10;;;;;;;;;;5009345;28;20584;-79
2023/05/13 00:09:55;;;;;;;3.03;2.00;;;;;;;;;;5012809;28;20033;-80
2023/05/13 00:12:21;;;;;;;5.20;1.85;;;;;;;;;;5014723;28;20492;-79
2023/05/13 00:14:47;;;;;;;3.65;2.25;;;;;;;;;;4991542;28;20068;-79
2023/05/13 00:17:13;;;;;;;2.88;1.77;;;;;;;;;;5011272;28;20026;-79
2023/05/13 00:19:39;;;;;;;2.75;1.85;;;;;;;;;;5018476;28;20018;-79
2023/05/13 00:22:05;;;;;;;2.15;1.52;;;;;;;;;;5024825;28;20575;-79
2023/05/13 00:24:31;;;;;;;3.05;1.92;;;;;;;;;;5027765;28;20068;-79
2023/05/13 00:27:00;;;;;;;3.22;1.88;;;;;;;;;;5012206;28;20022;-79
2023/05/13 00:29:26;;;;;;;2.17;1.52;;;;;;;;;;4993182;28;20114;-79
2023/05/13 00:31:52;;;;;;;2.28;1.58;;;;;;;;;;5011129;28;20040;-78
2023/05/13 00:34:18;;;;;;;2.17;1.63;;;;;;;;;;5009038;28;20044;-79
2023/05/13 00:36:44;;;;;;;2.35;1.77;;;;;;;;;;5011681;28;20025;-79
2023/05/13 00:39:10;;;;;;;2.65;1.73;;;;;;;;;;5028229;28;20037;-80
2023/05/13 00:41:37;;;;;;;3.05;1.83;;;;;;;;;;5027835;28;20116;-80
2023/05/13 00:44:03;;;;;;;1.88;1.65;;;;;;;;;;5023940;28;20558;-80
2023/05/13 00:46:32;;;;;;;6.30;1.90;;;;;;;;;;5029090;28;20381;-80
2023/05/13 00:48:59;;;;;;;3.00;2.00;;;;;;;;;;5023457;28;20665;-80
2023/05/13 00:51:25;;;;;;;2.53;1.70;;;;;;;;;;5019633;28;20022;-80
2023/05/13 00:53:52;;;;;;;3.92;1.88;;;;;;;;;;5026446;28;20021;-79
2023/05/13 00:56:20;;;;;;;3.03;2.05;;;;;;;;;;5021976;28;20025;-80
2023/05/13 00:58:46;;;;;;;2.35;1.60;;;;;;;;;;5032101;28;20033;-80
2023/05/13 01:01:31;;;;;;;3.22;1.48;;;;;;;;;;5026536;28;20028;-80
2023/05/13 01:04:15;;;;;;;5.82;1.88;;;;;;;;;;5025605;28;20061;-80
2023/05/13 01:06:53;;;;;;;3.40;2.03;;;;;;;;;;5018092;28;20100;-80
2023/05/13 01:09:19;;;;;;;3.83;1.90;;;;;;;;;;5025292;28;20030;-80
2023/05/13 01:11:46;;;;;;;4.00;1.88;;;;;;;;;;5029088;28;20016;-80
2023/05/13 01:14:14;;;;;;;1.52;1.30;;;;;;;;;;5027970;28;20500;-79
2023/05/13 01:16:51;;;;;;;1.80;1.58;;;;;;;;;;5028846;28;20434;-80
2023/05/13 01:19:32;;;;;;;3.25;1.48;;;;;;;;;;5024166;28;20028;-80
2023/05/13 01:21:58;;;;;;;2.08;1.70;;;;;;;;;;5022630;28;20512;-79
2023/05/13 01:24:24;;;;;;;2.63;1.50;;;;;;;;;;5025256;28;20030;-80
2023/05/13 01:26:50;;;;;;;1.40;1.30;;;;;;;;;;5027391;28;20029;-81
2023/05/13 01:29:16;;;;;;;2.13;1.52;;;;;;;;;;5027520;28;20388;-80
2023/05/13 01:31:43;;;;;;;1.70;1.30;;;;;;;;;;5021732;28;20030;-80
2023/05/13 01:34:10;;;;;;;1.98;1.60;;;;;;;;;;5022459;28;20029;-80
2023/05/13 01:36:37;;;;;;;1.77;1.67;;;;;;;;;;5026211;28;20033;-80
2023/05/13 01:39:03;;;;;;;2.22;1.52;;;;;;;;;;5028393;28;20060;-79
2023/05/13 01:41:29;;;;;;;3.17;1.73;;;;;;;;;;5025838;28;20025;-79
2023/05/13 01:43:56;;;;;;;2.58;1.60;;;;;;;;;;5026734;28;20033;-80
2023/05/13 01:46:22;;;;;;;2.92;1.63;;;;;;;;;;5025597;28;20032;-80
2023/05/13 01:48:48;;;;;;;2.53;1.50;;;;;;;;;;5018858;28;20471;-80
2023/05/13 01:51:14;;;;;;;2.53;1.50;;;;;;;;;;5021923;28;20467;-80
2023/05/13 01:53:40;;;;;;;3.42;1.85;;;;;;;;;;5026491;28;20083;-80
2023/05/13 01:56:09;;;;;;;2.55;1.75;;;;;;;;;;5026957;28;20987;-80
2023/05/13 01:58:35;;;;;;;5.53;1.75;;;;;;;;;;5026487;28;20026;-80
2023/05/13 02:01:04;;;;;;;2.40;1.55;;;;;;;;;;5024247;28;20029;-80
2023/05/13 02:03:30;;;;;;;2.28;1.50;;;;;;;;;;5026585;28;20135;-80
2023/05/13 02:05:56;;;;;;;2.97;1.55;;;;;;;;;;5029059;28;20504;-80
2023/05/13 02:08:24;;;;;;;2.13;1.30;;;;;;;;;;5025325;28;20112;-81
2023/05/13 02:10:57;;;;;;;3.17;1.63;;;;;;;;;;5026589;28;20037;-80
2023/05/13 02:13:23;;;;;;;2.97;1.38;;;;;;;;;;5025592;28;20389;-80
2023/05/13 02:15:49;;;;;;;2.92;1.55;;;;;;;;;;5026212;28;20032;-80
2023/05/13 02:18:15;;;;;;;2.45;1.52;;;;;;;;;;5025460;28;20025;-79
2023/05/13 02:20:41;;;;;;;6.03;1.55;;;;;;;;;;5024242;28;20040;-80
2023/05/13 02:23:07;;;;;;;2.22;1.60;;;;;;;;;;5029225;28;20699;-79
2023/05/13 02:25:33;;;;;;;2.60;1.83;;;;;;;;;;5026889;28;20029;-80
2023/05/13 02:27:59;;;;;;;2.85;1.50;;;;;;;;;;5027619;28;20101;-79
2023/05/13 02:30:26;;;;;;;1.60;1.50;;;;;;;;;;5020833;28;20029;-80
2023/05/13 02:32:55;;;;;;;2.33;1.40;;;;;;;;;;5023801;28;20049;-80
2023/05/13 02:35:21;;;;;;;1.83;1.58;;;;;;;;;;5025309;28;20636;-79
2023/05/13 02:37:47;;;;;;;1.70;1.27;;;;;;;;;;5024968;28;20110;-79
2023/05/13 02:40:13;;;;;;;2.50;1.60;;;;;;;;;;5023425;28;20029;-80
2023/05/13 02:42:40;;;;;;;2.65;1.65;;;;;;;;;;5022526;28;20049;-81
2023/05/13 02:45:06;;;;;;;1.98;1.25;;;;;;;;;;5026063;28;20678;-80
2023/05/13 02:47:32;;;;;;;1.92;1.20;;;;;;;;;;5025721;28;20086;-80
2023/05/13 02:49:58;;;;;;;1.50;1.20;;;;;;;;;;5021740;28;20026;-80
2023/05/13 02:52:24;;;;;;;2.28;1.60;;;;;;;;;;5023689;28;20033;-80
2023/05/13 02:54:50;;;;;;;1.63;1.40;;;;;;;;;;5025770;28;20039;-79
2023/05/13 02:57:16;;;;;;;2.28;1.48;;;;;;;;;;5024923;28;20066;-80
2023/05/13 02:59:45;;;;;;;2.10;1.40;;;;;;;;;;5025424;28;20388;-80
2023/05/13 03:02:10;;;;;;;3.10;1.70;;;;;;;;;;5024052;28;20025;-80
2023/05/13 03:04:36;;;;;;;2.13;1.50;;;;;;;;;;5012386;28;20392;-80
2023/05/13 03:07:02;;;;;;;3.05;1.48;;;;;;;;;;5003597;28;20034;-80
2023/05/13 03:09:30;;;;;;;1.40;1.27;;;;;;;;;;5005339;28;20042;-80
2023/05/13 03:11:57;;;;;;;3.90;1.55;;;;;;;;;;5005335;28;20118;-80
2023/05/13 03:14:23;;;;;;;2.40;1.50;;;;;;;;;;5004183;28;20041;-80
2023/05/13 03:16:49;;;;;;;1.80;1.27;;;;;;;;;;5003031;28;20025;-80
2023/05/13 03:19:15;;;;;;;2.67;1.58;;;;;;;;;;5003891;28;20026;-80
2023/05/13 03:21:43;;;;;;;1.63;1.33;;;;;;;;;;5001082;28;20087;-80
2023/05/13 03:24:10;;;;;;;2.45;1.63;;;;;;;;;;5004166;28;20030;-81
2023/05/13 03:26:36;;;;;;;2.15;1.45;;;;;;;;;;5002166;28;20025;-81
2023/05/13 03:29:02;;;;;;;1.80;1.45;;;;;;;;;;5007508;28;20032;-81
2023/05/13 03:31:28;;;;;;;1.73;1.20;;;;;;;;;;5008051;28;20554;-80
2023/05/13 03:33:54;;;;;;;2.42;1.33;;;;;;;;;;5004826;28;20034;-79
2023/05/13 03:36:19;;;;;;;3.17;1.70;;;;;;;;;;5007605;28;20030;-80
2023/05/13 03:38:45;;;;;;;1.80;1.25;;;;;;;;;;5008897;28;20029;-79
2023/05/13 03:41:11;;;;;;;2.25;1.80;;;;;;;;;;5007955;28;20556;-80
2023/05/13 03:43:38;;;;;;;1.42;1.20;;;;;;;;;;5007367;28;20026;-81
2023/05/13 03:46:04;;;;;;;1.85;1.38;;;;;;;;;;4998190;28;20029;-80
2023/05/13 03:48:30;;;;;;;1.88;1.40;;;;;;;;;;5009369;28;20385;-81
2023/05/13 03:50:56;;;;;;;3.92;1.60;;;;;;;;;;5007616;28;20025;-80
2023/05/13 03:53:21;;;;;;;1.75;1.27;;;;;;;;;;5007278;28;20064;-81
2023/05/13 03:55:48;;;;;;;1.90;1.30;;;;;;;;;;5005612;28;20050;-81
2023/05/13 03:58:15;;;;;;;1.77;1.30;;;;;;;;;;4991606;28;20077;-80
2023/05/13 04:00:41;;;;;;;1.38;1.20;;;;;;;;;;5004699;28;20030;-81
2023/05/13 04:03:07;;;;;;;1.83;1.40;;;;;;;;;;5010625;28;20030;-81
2023/05/13 04:05:33;;;;;;;2.38;1.45;;;;;;;;;;5042516;28;20446;-80
2023/05/13 04:07:59;;;;;;;2.33;1.27;;;;;;;;;;5030317;28;20025;-80
2023/05/13 04:10:25;;;;;;;2.38;1.50;;;;;;;;;;5032101;28;20137;-81
2023/05/13 04:12:51;;;;;;;2.72;1.60;;;;;;;;;;5026943;28;20063;-81
2023/05/13 04:15:17;;;;;;;1.20;1.10;;;;;;;;;;5027054;28;20730;-80
2023/05/13 04:17:43;;;;;;;1.38;1.20;;;;;;;;;;5030584;28;20028;-81
2023/05/13 04:20:09;;;;;;;2.40;1.60;;;;;;;;;;5029010;28;20547;-81
2023/05/13 04:22:35;;;;;;;1.90;1.55;;;;;;;;;;5028454;28;20033;-81
2023/05/13 04:25:01;;;;;;;1.73;1.30;;;;;;;;;;5027351;28;20030;-81
2023/05/13 04:27:27;;;;;;;2.03;1.40;;;;;;;;;;5028611;28;20032;-80
2023/05/13 04:29:53;;;;;;;3.42;1.88;;;;;;;;;;5029237;28;20510;-81
2023/05/13 04:32:22;;;;;;;2.42;1.50;;;;;;;;;;5026213;28;20029;-80
2023/05/13 04:34:48;;;;;;;3.58;1.60;;;;;;;;;;5028283;28;20041;-81
2023/05/13 04:37:15;;;;;;;2.45;1.30;;;;;;;;;;5027491;28;20083;-80
2023/05/13 04:39:41;;;;;;;2.17;1.40;;;;;;;;;;5034262;28;20380;-80
2023/05/13 04:42:07;;;;;;;2.40;1.50;;;;;;;;;;5028035;28;20033;-80
2023/05/13 04:44:33;;;;;;;2.20;1.60;;;;;;;;;;5028127;28;20494;-79
2023/05/13 04:46:59;;;;;;;1.83;1.08;;;;;;;;;;5008351;28;20017;-79
2023/05/13 04:49:25;;;;;;;2.00;1.40;;;;;;;;;;5026620;28;20040;-79
2023/05/13 04:51:52;;;;;;;2.17;1.35;;;;;;;;;;5026845;28;20026;-79
2023/05/13 04:54:18;;;;;;;2.53;1.42;;;;;;;;;;5026023;28;20029;-79
2023/05/13 04:56:44;;;;;;;1.92;1.27;;;;;;;;;;5028692;28;20025;-80
2023/05/13 04:59:10;;;;;;;3.97;2.13;;;;;;;;;;5028662;28;20028;-80
2023/05/13 05:01:36;;;;;;;1.58;1.48;;;;;;;;;;5025197;28;20124;-80
2023/05/13 05:04:02;;;;;;;1.52;1.25;;;;;;;;;;5025948;28;20050;-80
2023/05/13 05:06:28;;;;;;;3.10;1.60;;;;;;;;;;5024100;28;20021;-81
2023/05/13 05:08:54;;;;;;;2.80;1.35;;;;;;;;;;5026977;28;20022;-80
2023/05/13 05:11:23;;;;;;;2.20;1.50;;;;;;;;;;5026866;28;20021;-80
2023/05/13 05:13:49;;;;;;;1.52;1.15;;;;;;;;;;5031208;28;20017;-80
2023/05/13 05:16:15;;;;;;;3.47;1.40;;;;;;;;;;5027080;28;20026;-80
2023/05/13 05:18:42;;;;;;;2.03;1.38;;;;;;;;;;5027254;28;20372;-79
2023/05/13 05:21:08;;;;;;;2.33;1.45;;;;;;;;;;5020452;28;20562;-80
2023/05/13 05:23:34;;;;;;;1.60;1.20;;;;;;;;;;5024282;28;20026;-74
2023/05/13 05:26:00;;;;;;;3.35;1.70;;;;;;;;;;5024500;28;20101;-74
2023/05/13 05:28:26;;;;;;;1.38;1.10;;;;;;;;;;5023263;28;20652;-74
2023/05/13 05:30:52;;;;;;;1.45;1.20;;;;;;;;;;5027889;28;20093;-73
2023/05/13 05:33:18;;;;;;;2.15;1.50;;;;;;;;;;5027998;28;20029;-80
2023/05/13 05:35:44;;;;;;;2.08;1.17;;;;;;;;;;5026818;28;20480;-77
2023/05/13 05:38:11;;;;;;;2.75;1.48;;;;;;;;;;5025475;28;20036;-76
2023/05/13 05:40:41;;;;;;;3.05;1.50;;;;;;;;;;5008140;28;20503;-76
2023/05/13 05:43:08;;;;;;;1.90;1.30;;;;;;;;;;5023723;28;20057;-80
2023/05/13 05:45:34;;;;;;;1.52;1.15;;;;;;;;;;5026485;28;20101;-80
2023/05/13 05:48:01;;;;;;;2.13;1.63;;;;;;;;;;5025202;28;20112;-72
2023/05/13 05:50:27;;;;;;;1.58;1.10;;;;;;;;;;5026652;28;20029;-82
2023/05/13 05:52:53;;;;;;;1.75;1.23;;;;;;;;;;5027197;28;20373;-80
2023/05/13 05:55:20;;;;;;;1.60;1.50;;;;;;;;;;5027922;28;20107;-77
2023/05/13 05:57:46;;;;;;;2.33;1.40;;;;;;;;;;5024373;28;20026;-81
2023/05/13 06:00:12;;;;;;;3.50;1.73;;;;;;;;;;5027153;28;20123;-80
2023/05/13 06:02:38;;;;;;;1.38;1.27;;;;;;;;;;5028120;28;20044;-80
2023/05/13 06:05:05;;;;;;;1.25;1.15;;;;;;;;;;5046111;28;20704;-80
2023/05/13 06:07:31;;;;;;;2.67;1.52;;;;;;;;;;5032906;28;20076;-80
2023/05/13 06:09:57;;;;;;;6.05;2.13;;;;;;;;;;5027883;28;20018;-80
2023/05/13 06:12:23;;;;;;;1.88;1.33;;;;;;;;;;5028212;28;20487;-81
2023/05/13 06:14:49;;;;;;;5.47;1.33;;;;;;;;;;5027744;28;20052;-81
2023/05/13 06:17:15;;;;;;;1.63;1.10;;;;;;;;;;5028836;28;20045;-81
2023/05/13 06:19:41;;;;;;;1.35;1.20;;;;;;;;;;5027776;28;20029;-80
2023/05/13 06:22:08;;;;;;;1.58;1.23;;;;;;;;;;5027953;28;20033;-80
2023/05/13 06:24:34;;;;;;;3.38;1.60;;;;;;;;;;5027404;28;20018;-82
2023/05/13 06:27:00;;;;;;;2.30;1.23;;;;;;;;;;5029918;28;20087;-81
2023/05/13 06:29:27;;;;;;;4.88;1.40;;;;;;;;;;5028066;28;20030;-81
2023/05/13 06:31:53;;;;;;;1.67;1.40;;;;;;;;;;5020098;28;20137;-82
2023/05/13 06:34:19;;;;;;;2.63;1.45;;;;;;;;;;5025696;28;20022;-82
2023/05/13 06:36:45;;;;;;;1.25;1.10;;;;;;;;;;5025377;28;20594;-82
2023/05/13 06:39:11;;;;;;;1.70;1.52;;;;;;;;;;5026274;28;20877;-81
2023/05/13 06:41:38;;;;;;;1.55;1.40;;;;;;;;;;5025516;28;20490;-81
2023/05/13 06:44:04;;;;;;;2.42;1.50;;;;;;;;;;5014977;28;20053;-82
2023/05/13 06:46:30;;;;;;;3.00;1.65;;;;;;;;;;5022309;28;20594;-81
2023/05/13 06:48:57;;;;;;;4.05;1.60;;;;;;;;;;5027259;28;20030;-81
2023/05/13 06:51:23;;;;;;;1.85;1.25;;;;;;;;;;5027803;28;20049;-82
2023/05/13 06:53:49;;;;;;;4.18;1.40;;;;;;;;;;5028420;28;20399;-83
2023/05/13 06:56:15;;;;;;;1.55;1.45;;;;;;;;;;5028123;28;20025;-82
2023/05/13 06:58:40;;;;;;;1.88;1.67;;;;;;;;;;5027708;28;20106;-82
2023/05/13 07:01:06;;;;;;;2.88;1.63;;;;;;;;;;5031046;28;20025;-81
2023/05/13 07:03:32;;;;;;;2.15;1.30;;;;;;;;;;5031877;28;20033;-83
2023/05/13 07:05:58;;;;;;;1.42;1.23;;;;;;;;;;5035460;28;20041;-83
2023/05/13 07:08:24;;;;;;;1.50;1.20;;;;;;;;;;5031739;28;20060;-81
2023/05/13 07:10:50;;;;;;;3.42;1.67;;;;;;;;;;5033649;28;20068;-83
2023/05/13 07:13:17;;;;;;;1.92;1.20;;;;;;;;;;5032229;28;20053;-82
2023/05/13 07:15:44;;;;;;;4.78;1.63;;;;;;;;;;5031153;28;20044;-82
2023/05/13 07:18:10;;;;;;;2.13;1.50;;;;;;;;;;5031507;28;20021;-82
2023/05/13 07:20:36;;;;;;;1.52;1.20;;;;;;;;;;5031513;28;20365;-83
2023/05/13 07:23:02;;;;;;;5.10;1.95;;;;;;;;;;5024193;28;20022;-83
2023/05/13 07:25:28;;;;;;;5.10;1.45;;;;;;;;;;5027797;28;20523;-83
2023/05/13 07:27:55;;;;;;;2.63;1.60;;;;;;;;;;5026259;28;20064;-83
2023/05/13 07:30:21;;;;;;;2.70;1.73;;;;;;;;;;5031597;28;20052;-83
2023/05/13 07:32:47;;;;;;;2.08;1.30;;;;;;;;;;5031511;28;20053;-83
2023/05/13 07:35:13;;;;;;;2.55;1.73;;;;;;;;;;5031012;28;20029;-82
2023/05/13 07:37:39;;;;;;;1.80;1.35;;;;;;;;;;5031082;28;20017;-81
2023/05/13 07:40:06;;;;;;;3.65;1.80;;;;;;;;;;5012090;28;20556;-82
2023/05/13 07:42:32;;;;;;;1.77;1.30;;;;;;;;;;5031539;28;20109;-81
2023/05/13 07:44:58;;;;;;;2.10;1.50;;;;;;;;;;5032332;28;20018;-82
2023/05/13 07:47:26;;;;;;;2.55;1.40;;;;;;;;;;5030778;28;20476;-82
2023/05/13 07:49:52;;;;;;;1.33;1.20;;;;;;;;;;5029033;28;20021;-81
2023/05/13 07:52:18;;;;;;;2.25;1.17;;;;;;;;;;5025423;28;20112;-81
2023/05/13 07:54:44;;;;;;;3.13;1.48;;;;;;;;;;5027405;28;20037;-81
2023/05/13 07:57:10;;;;;;;2.65;1.27;;;;;;;;;;5030963;28;20123;-81
2023/05/13 07:59:36;;;;;;;1.60;1.30;;;;;;;;;;5030920;28;20021;-80
2023/05/13 08:02:02;;;;;;;1.60;1.30;;;;;;;;;;5030989;28;20030;-81
2023/05/13 08:04:28;;;;;;;1.58;1.48;;;;;;;;;;5030227;28;20034;-82
2023/05/13 08:06:57;;;;;;;2.55;1.52;;;;;;;;;;5031121;28;20108;-82
2023/05/13 08:09:23;;;;;;;2.28;1.33;;;;;;;;;;5030321;28;20625;-81
2023/05/13 08:11:49;;;;;;;1.48;1.20;;;;;;;;;;5029994;28;20049;-82
2023/05/13 08:14:15;;;;;;;1.42;1.17;;;;;;;;;;5030308;28;20091;-81
2023/05/13 08:16:41;;;;;;;2.70;1.27;;;;;;;;;;5023082;28;20017;-86
2023/05/13 08:19:07;;;;;;;1.65;1.30;;;;;;;;;;5034333;28;20384;-81
2023/05/13 08:21:33;;;;;;;1.88;1.38;;;;;;;;;;5028383;28;20403;-81
2023/05/13 08:23:59;;;;;;;1.48;1.10;;;;;;;;;;5030878;28;20024;-82
2023/05/13 08:26:25;;;;;;;2.95;1.50;;;;;;;;;;5028641;28;20033;-81
2023/05/13 08:28:51;;;;;;;1.65;1.40;;;;;;;;;;5034961;28;20030;-80
2023/05/13 08:31:17;;;;;;;1.70;1.45;;;;;;;;;;5028261;28;20034;-81
2023/05/13 08:33:47;;;;;;;1.95;1.30;;;;;;;;;;5030222;28;20025;-80
2023/05/13 08:36:14;;;;;;;1.40;1.30;;;;;;;;;;5028663;28;20487;-82
2023/05/13 08:38:42;;;;;;;2.22;1.73;;;;;;;;;;5036180;28;20080;-82
2023/05/13 08:41:09;;;;;;;2.38;1.27;;;;;;;;;;5028803;28;20029;-81
2023/05/13 08:43:36;;;;;;;2.25;1.13;;;;;;;;;;5030010;28;20026;-82
2023/05/13 08:46:03;;;;;;;2.33;1.63;;;;;;;;;;5026325;28;20630;-81
2023/05/13 08:48:30;;;;;;;1.70;1.10;;;;;;;;;;5030078;28;20468;-81
2023/05/13 08:50:57;;;;;;;2.38;1.13;;;;;;;;;;5029160;28;20029;-81
2023/05/13 08:53:27;;;;;;;1.45;1.35;;;;;;;;;;5029979;28;20479;-80
2023/05/13 08:55:54;;;;;;;1.42;1.00;;;;;;;;;;5029187;28;20053;-81
2023/05/13 08:58:20;;;;;;;1.73;1.05;;;;;;;;;;5029381;28;20037;-78
2023/05/13 09:00:48;;;;;;;1.55;1.08;;;;;;;;;;5028712;28;20116;-78
2023/05/13 09:03:18;;;;;;;1.17;1.02;;;;;;;;;;5032522;28;20128;-76
2023/05/13 09:05:45;;;;;;;1.40;1.23;;;;;;;;;;5023881;28;20029;-76
2023/05/13 09:08:11;;;;;;;1.50;1.02;;;;;;;;;;5029719;28;20100;-78
2023/05/13 09:10:37;;;;;;;1.45;1.00;;;;;;;;;;5027293;28;20088;-79
2023/05/13 09:13:03;;;;;;;1.45;1.35;;;;;;;;;;5029648;28;20257;-78
2023/05/13 09:15:30;;;;;;;1.42;1.30;;;;;;;;;;5033360;28;20056;-78
2023/05/13 09:17:58;;;;;;;1.27;1.15;;;;;;;;;;5028672;28;20476;-77
2023/05/13 09:20:25;;;;;;;1.65;1.10;;;;;;;;;;5026816;28;20273;-78
2023/05/13 09:22:52;;;;;;;2.75;1.33;;;;;;;;;;5027029;28;20025;-77
2023/05/13 09:25:19;;;;;;;1.70;1.23;;;;;;;;;;5032699;28;20057;-81
2023/05/13 09:27:49;;;;;;;1.10;1.00;;;;;;;;;;5028468;28;20036;-77
2023/05/13 09:30:15;;;;;;;2.90;1.40;;;;;;;;;;5024150;28;20029;-81
2023/05/13 09:32:42;;;;;;;2.15;1.15;;;;;;;;;;5028017;28;20037;-76
2023/05/13 09:35:15;;;;;;;1.85;1.25;;;;;;;;;;5027274;28;20049;-76
2023/05/13 09:37:41;;;;;;;1.98;1.17;;;;;;;;;;5021466;28;21313;-75
2023/05/13 09:40:10;;;;;;;1.30;1.08;;;;;;;;;;5025812;28;20017;-77
2023/05/13 09:42:40;;;;;;;1.45;1.13;;;;;;;;;;5025005;28;20120;-77
2023/05/13 09:45:06;;;;;;;2.00;1.15;;;;;;;;;;5025609;28;20060;-76
2023/05/13 09:47:32;;;;;;;1.40;1.08;;;;;;;;;;5022436;28;20427;-76
2023/05/13 09:50:01;;;;;;;2.67;1.45;;;;;;;;;;5025778;28;20018;-76
2023/05/13 09:52:29;;;;;;;4.13;1.13;;;;;;;;;;5023453;28;20061;-75
2023/05/13 09:54:56;;;;;;;1.02;0.98;;;;;;;;;;5021120;28;20044;-75
2023/05/13 09:57:22;;;;;;;1.13;1.02;;;;;;;;;;5026040;28;20040;-75
2023/05/13 09:59:48;;;;;;;1.40;1.25;;;;;;;;;;5024648;28;20025;-76
2023/05/13 10:02:15;;;;;;;6.13;1.67;;;;;;;;;;5026882;28;20029;-76
2023/05/13 10:04:41;;;;;;;2.10;1.20;;;;;;;;;;5024899;28;20057;-75
2023/05/13 10:07:09;;;;;;;4.07;1.15;;;;;;;;;;5032535;28;20079;-76
2023/05/13 10:09:36;;;;;;;1.50;1.10;;;;;;;;;;5025743;28;20017;-76
2023/05/13 10:12:03;;;;;;;1.40;1.02;;;;;;;;;;5024675;28;20037;-76
2023/05/13 10:14:29;;;;;;;2.28;1.10;;;;;;;;;;5025705;28;20030;-76
2023/05/13 10:16:56;;;;;;;2.05;1.60;;;;;;;;;;5023237;28;20494;-75
2023/05/13 10:19:23;;;;;;;4.93;1.52;;;;;;;;;;5024793;28;20764;-76
2023/05/13 10:21:51;;;;;;;1.50;1.20;;;;;;;;;;5023705;28;20124;-76
2023/05/13 10:24:17;;;;;;;1.30;1.20;;;;;;;;;;5025532;28;20021;-76
2023/05/13 10:26:43;;;;;;;1.42;1.00;;;;;;;;;;5024919;28;20090;-76
2023/05/13 10:29:10;;;;;;;1.17;1.08;;;;;;;;;;5021980;28;20057;-76
2023/05/13 10:31:36;;;;;;;2.08;1.35;;;;;;;;;;5026797;28;20024;-75
2023/05/13 10:34:03;;;;;;;1.35;1.20;;;;;;;;;;5028121;28;20033;-76
2023/05/13 10:36:44;;;;;;;1.40;1.10;;;;;;;;;;5025544;28;20074;-76
2023/05/13 10:39:18;;;;;;;1.80;1.42;;;;;;;;;;5025905;28;20104;-76
2023/05/13 10:42:16;;;;;;;1.17;1.08;;;;;;;;;;5027306;28;20034;-78
2023/05/13 10:44:42;;;;;;;1.23;1.13;;;;;;;;;;5025180;28;20148;-77
2023/05/13 10:47:09;;;;;;;1.25;1.10;;;;;;;;;;5023926;28;20120;-76
2023/05/13 10:49:36;;;;;;;7.63;1.63;;;;;;;;;;5025304;28;20064;-76
2023/05/13 10:52:09;;;;;;;1.70;1.50;;;;;;;;;;5030656;28;20017;-76
2023/05/13 10:54:40;;;;;;;1.20;1.10;;;;;;;;;;5024638;28;20067;-76
2023/05/13 10:57:07;;;;;;;1.10;1.00;;;;;;;;;;5024623;28;20032;-75
2023/05/13 10:59:35;;;;;;;5.78;1.40;;;;;;;;;;5024565;28;20029;-80
2023/05/13 11:02:21;;;;;;;5.95;1.42;;;;;;;;;;5027417;28;20103;-77
2023/05/13 11:05:00;;;;;;;1.30;1.20;;;;;;;;;;5026491;28;20528;-76
2023/05/13 11:07:28;;;;;;;2.15;1.30;;;;;;;;;;5026773;28;20588;-75
2023/05/13 11:09:54;;;;;;;3.33;0.90;;;;;;;;;;5027206;28;20099;-74
2023/05/13 11:12:20;;;;;;;2.03;1.33;;;;;;;;;;5029626;28;20045;-77
2023/05/13 11:14:48;;;;;;;1.10;0.95;;;;;;;;;;5028753;28;20092;-77
2023/05/13 11:17:17;;;;;;;1.88;1.20;;;;;;;;;;5029168;28;20026;-77
2023/05/13 11:19:47;;;;;;;5.35;1.27;;;;;;;;;;5023971;28;20100;-77
2023/05/13 11:22:15;;;;;;;1.30;1.20;;;;;;;;;;5013121;28;20579;-76
2023/05/13 11:24:41;;;;;;;1.70;1.20;;;;;;;;;;5030571;28;20029;-76
2023/05/13 11:27:17;;;;;;;1.42;1.25;;;;;;;;;;5030797;28;20025;-76
2023/05/13 11:29:54;;;;;;;2.63;1.70;;;;;;;;;;5023188;28;20022;-76
2023/05/13 11:32:39;;;;;;;1.77;1.27;;;;;;;;;;5028557;28;20071;-77
2023/05/13 11:35:07;;;;;;;6.45;1.15;;;;;;;;;;5025678;28;20036;-82
2023/05/13 11:37:33;;;;;;;6.55;1.17;;;;;;;;;;5024326;28;20029;-76
2023/05/13 11:40:00;;;;;;;1.27;1.10;;;;;;;;;;5025123;28;21104;-76
2023/05/13 11:42:26;;;;;;;1.73;1.20;;;;;;;;;;5025444;28;20112;-75
2023/05/13 11:44:52;;;;;;;1.58;1.42;;;;;;;;;;5023422;28;20137;-76
2023/05/13 11:47:26;;;;;;;6.82;1.60;;;;;;;;;;5023143;28;20121;-75
2023/05/13 11:49:52;;;;;;;3.88;1.50;;;;;;;;;;5027404;28;20030;-76
2023/05/13 11:52:19;;;;;;;1.35;1.20;;;;;;;;;;5030084;28;20052;-76
2023/05/13 11:54:53;;;;;;;2.17;1.42;;;;;;;;;;5023930;28;20079;-75
2023/05/13 11:57:19;;;;;;;1.67;1.40;;;;;;;;;;5027487;28;20025;-76
2023/05/13 11:59:52;;;;;;;2.45;1.48;;;;;;;;;;5024533;28;20266;-75
2023/05/13 12:02:26;;;;;;;3.53;1.65;;;;;;;;;;5022322;28;20693;-76
2023/05/13 12:04:52;;;;;;;2.55;1.75;;;;;;;;;;5028589;28;20064;-76
2023/05/13 12:07:20;;;;;;;2.60;1.60;;;;;;;;;;5036301;28;20071;-76
2023/05/13 12:09:46;;;;;;;2.72;1.52;;;;;;;;;;5027808;28;20032;-77
2023/05/13 12:12:12;;;;;;;2.42;1.48;;;;;;;;;;5033596;28;20025;-76
2023/05/13 12:14:38;;;;;;;3.00;1.60;;;;;;;;;;5029281;28;20036;-76
2023/05/13 12:17:04;;;;;;;4.00;1.48;;;;;;;;;;5039347;28;20114;-76
2023/05/13 12:19:30;;;;;;;2.60;1.58;;;;;;;;;;5032444;28;20137;-77
2023/05/13 12:21:58;;;;;;;2.58;1.83;;;;;;;;;;5026234;28;20030;-76
2023/05/13 12:24:24;;;;;;;2.13;1.63;;;;;;;;;;5035090;28;20028;-77
2023/05/13 12:26:50;;;;;;;2.45;1.40;;;;;;;;;;5035198;28;20104;-77
2023/05/13 12:29:16;;;;;;;2.50;1.45;;;;;;;;;;5034524;28;20539;-76
2023/05/13 12:31:43;;;;;;;3.08;1.90;;;;;;;;;;5029664;28;20076;-77
2023/05/13 12:34:09;;;;;;;2.53;1.40;;;;;;;;;;5036124;28;20500;-75
2023/05/13 12:36:38;;;;;;;3.88;1.75;;;;;;;;;;5038144;28;20025;-75
2023/05/13 12:39:08;;;;;;;1.88;1.40;;;;;;;;;;5026939;28;20086;-75
2023/05/13 12:41:35;;;;;;;2.72;1.48;;;;;;;;;;5032709;28;20037;-75
2023/05/13 12:44:13;;;;;;;1.83;1.58;;;;;;;;;;5037746;28;20021;-75
2023/05/13 12:46:51;;;;;;;1.98;1.77;;;;;;;;;;5029873;28;20059;-75
2023/05/13 12:49:17;;;;;;;2.25;1.45;;;;;;;;;;5016412;28;20571;-76
2023/05/13 12:51:43;;;;;;;2.75;1.80;;;;;;;;;;5021081;28;20040;-77
2023/05/13 12:54:10;;;;;;;1.35;1.17;;;;;;;;;;5037366;28;20403;-77
2023/05/13 12:56:38;;;;;;;1.77;1.23;;;;;;;;;;5020488;28;20124;-76
2023/05/13 12:59:04;;;;;;;2.53;1.52;;;;;;;;;;5031901;28;20524;-76
2023/05/13 13:01:30;;;;;;;3.42;1.63;;;;;;;;;;5024949;28;20036;-76
2023/05/13 13:03:56;;;;;;;1.60;1.35;;;;;;;;;;5014309;28;20056;-76
2023/05/13 13:06:22;;;;;;;2.22;1.58;;;;;;;;;;5039955;28;20097;-76
2023/05/13 13:08:48;;;;;;;2.30;1.50;;;;;;;;;;5033734;28;20020;-76
2023/05/13 13:11:17;;;;;;;1.88;1.42;;;;;;;;;;5023764;28;20028;-76
2023/05/13 13:13:44;;;;;;;2.65;2.00;;;;;;;;;;5031364;28;20123;-76
2023/05/13 13:16:10;;;;;;;1.67;1.05;;;;;;;;;;5031414;28;20025;-76
2023/05/13 13:18:36;;;;;;;4.35;1.77;;;;;;;;;;5037937;28;20531;-76
2023/05/13 13:21:04;;;;;;;2.58;1.52;;;;;;;;;;5026995;28;20038;-76
2023/05/13 13:23:33;;;;;;;2.40;1.42;;;;;;;;;;5039702;28;20360;-77
2023/05/13 13:25:59;;;;;;;1.67;1.33;;;;;;;;;;5029873;28;20025;-76
2023/05/13 13:28:25;;;;;;;4.15;1.10;;;;;;;;;;5031595;28;20083;-76
2023/05/13 13:30:52;;;;;;;1.85;1.30;;;;;;;;;;5029419;28;20035;-76
2023/05/13 13:33:18;;;;;;;1.88;1.48;;;;;;;;;;5039017;28;20028;-76
2023/05/13 13:35:45;;;;;;;2.08;1.52;;;;;;;;;;5029038;28;20045;-76
2023/05/13 13:38:12;;;;;;;3.05;1.20;;;;;;;;;;5032566;28;20026;-76
2023/05/13 13:40:38;;;;;;;1.48;1.25;;;;;;;;;;5030671;28;20035;-76
2023/05/13 13:43:05;;;;;;;1.52;1.35;;;;;;;;;;5026207;28;20476;-77
2023/05/13 13:45:31;;;;;;;1.90;1.23;;;;;;;;;;5027316;28;20484;-77
2023/05/13 13:47:57;;;;;;;1.30;1.17;;;;;;;;;;5030323;28;20032;-76
2023/05/13 13:50:23;;;;;;;1.30;1.00;;;;;;;;;;5042674;28;20480;-76
2023/05/13 13:52:51;;;;;;;3.40;1.38;;;;;;;;;;5038556;28;20056;-76
2023/05/13 13:55:17;;;;;;;3.97;1.30;;;;;;;;;;5032258;28;20024;-76
2023/05/13 13:57:43;;;;;;;1.95;1.40;;;;;;;;;;5031236;28;20022;-75
2023/05/13 14:00:09;;;;;;;2.08;1.80;;;;;;;;;;5040396;28;20371;-75
2023/05/13 14:02:35;;;;;;;3.70;1.42;;;;;;;;;;5029248;28;20025;-76
2023/05/13 14:05:01;;;;;;;1.60;1.20;;;;;;;;;;5039842;28;20421;-76
2023/05/13 14:07:27;;;;;;;1.50;1.23;;;;;;;;;;5028310;28;20056;-76
2023/05/13 14:09:53;;;;;;;1.40;1.15;;;;;;;;;;5036793;28;20496;-77
2023/05/13 14:12:19;;;;;;;2.47;1.02;;;;;;;;;;5032104;28;20362;-76
2023/05/13 14:14:45;;;;;;;2.10;1.30;;;;;;;;;;5029923;28;20025;-76
2023/05/13 14:17:11;;;;;;;1.50;1.30;;;;;;;;;;5033321;28;20029;-77
2023/05/13 14:19:37;;;;;;;1.40;1.30;;;;;;;;;;5031612;28;20022;-76
2023/05/13 14:22:03;;;;;;;1.77;1.15;;;;;;;;;;5028566;28;20118;-76
2023/05/13 14:24:31;;;;;;;1.95;1.17;;;;;;;;;;5023446;28;20033;-76
2023/05/13 14:26:56;;;;;;;1.27;1.17;;;;;;;;;;5027574;28;20029;-76
2023/05/13 14:29:22;;;;;;;1.55;1.02;;;;;;;;;;5025094;28;20037;-76
2023/05/13 14:31:48;;;;;;;1.65;1.05;;;;;;;;;;5032635;28;20024;-76
2023/05/13 14:34:15;;;;;;;3.53;1.10;;;;;;;;;;5041817;28;20075;-75
2023/05/13 14:36:41;;;;;;;2.33;1.30;;;;;;;;;;5027393;28;20026;-76
2023/05/13 14:39:09;;;;;;;1.10;1.00;;;;;;;;;;5025184;28;20443;-76
2023/05/13 14:41:35;;;;;;;1.90;1.00;;;;;;;;;;5022593;28;20022;-76